sensor_id;sensor_type;location;lat;lon;timestamp;temperature;humidity
36450;DHT22;22475;51.390;7.180;2024-03-02T00:01:06;13.00;79.20
36450;DHT22;22475;51.390;7.180;2024-03-02T00:03:33;13.00;78.70
36450;DHT22;22475;51.390;7.180;2024-03-02T00:05:59;13.00;79.50
36450;DHT22;22475;51.390;7.180;2024-03-02T00:08:26;13.00;79.50
36450;DHT22;22475;51.390;7.180;2024-03-02T00:10:59;13.10;80.90
36450;DHT22;22475;51.390;7.180;2024-03-02T00:13:26;13.00;79.50
36450;DHT22;22475;51.390;7.180;2024-03-02T00:15:54;13.00;79.70
36450;DHT22;22475;51.390;7.180;2024-03-02T00:18:25;13.00;78.60
36450;DHT22;22475;51.390;7.180;2024-03-02T00:20:55;13.10;81.90
36450;DHT22;22475;51.390;7.180;2024-03-02T00:23:23;13.10;81.40
36450;DHT22;22475;51.390;7.180;2024-03-02T00:25:51;13.20;82.70
36450;DHT22;22475;51.390;7.180;2024-03-02T00:28:22;13.20;83.10
36450;DHT22;22475;51.390;7.180;2024-03-02T00:30:55;13.20;83.00
36450;DHT22;22475;51.390;7.180;2024-03-02T00:33:22;13.30;83.30
36450;DHT22;22475;51.390;7.180;2024-03-02T00:35:50;13.30;83.10
36450;DHT22;22475;51.390;7.180;2024-03-02T00:38:18;13.30;83.50
36450;DHT22;22475;51.390;7.180;2024-03-02T00:40:45;13.40;83.30
36450;DHT22;22475;51.390;7.180;2024-03-02T00:43:38;13.40;83.10
36450;DHT22;22475;51.390;7.180;2024-03-02T00:46:07;13.30;82.90
36450;DHT22;22475;51.390;7.180;2024-03-02T00:48:34;13.30;83.20
36450;DHT22;22475;51.390;7.180;2024-03-02T00:51:03;13.30;83.40
36450;DHT22;22475;51.390;7.180;2024-03-02T00:53:31;13.30;82.50
36450;DHT22;22475;51.390;7.180;2024-03-02T00:55:58;13.30;83.20
36450;DHT22;22475;51.390;7.180;2024-03-02T00:58:25;13.30;83.10
36450;DHT22;22475;51.390;7.180;2024-03-02T01:00:53;13.30;82.50
36450;DHT22;22475;51.390;7.180;2024-03-02T01:03:20;13.20;80.60
36450;DHT22;22475;51.390;7.180;2024-03-02T01:05:46;13.10;78.90
36450;DHT22;22475;51.390;7.180;2024-03-02T01:08:13;13.10;79.70
36450;DHT22;22475;51.390;7.180;2024-03-02T01:10:40;13.10;81.00
36450;DHT22;22475;51.390;7.180;2024-03-02T01:13:07;13.10;80.50
36450;DHT22;22475;51.390;7.180;2024-03-02T01:15:33;13.10;79.80
36450;DHT22;22475;51.390;7.180;2024-03-02T01:18:02;13.10;81.30
36450;DHT22;22475;51.390;7.180;2024-03-02T01:20:29;13.20;82.00
36450;DHT22;22475;51.390;7.180;2024-03-02T01:22:55;13.30;83.40
36450;DHT22;22475;51.390;7.180;2024-03-02T01:25:22;13.20;82.20
36450;DHT22;22475;51.390;7.180;2024-03-02T01:27:49;13.20;81.00
36450;DHT22;22475;51.390;7.180;2024-03-02T01:30:16;13.30;82.30
36450;DHT22;22475;51.390;7.180;2024-03-02T01:32:42;13.30;83.60
36450;DHT22;22475;51.390;7.180;2024-03-02T01:35:10;13.30;83.90
36450;DHT22;22475;51.390;7.180;2024-03-02T01:37:37;13.40;83.90
36450;DHT22;22475;51.390;7.180;2024-03-02T01:40:05;13.40;83.60
36450;DHT22;22475;51.390;7.180;2024-03-02T01:42:35;13.40;83.30
36450;DHT22;22475;51.390;7.180;2024-03-02T01:45:02;13.30;82.10
36450;DHT22;22475;51.390;7.180;2024-03-02T01:47:29;13.30;82.00
36450;DHT22;22475;51.390;7.180;2024-03-02T01:49:56;13.30;83.10
36450;DHT22;22475;51.390;7.180;2024-03-02T01:52:25;13.30;83.80
36450;DHT22;22475;51.390;7.180;2024-03-02T01:54:52;13.40;83.70
36450;DHT22;22475;51.390;7.180;2024-03-02T01:57:19;13.40;83.50
36450;DHT22;22475;51.390;7.180;2024-03-02T01:59:46;13.40;83.40
36450;DHT22;22475;51.390;7.180;2024-03-02T02:02:14;13.40;82.90
36450;DHT22;22475;51.390;7.180;2024-03-02T02:04:40;13.30;83.20
36450;DHT22;22475;51.390;7.180;2024-03-02T02:07:07;13.30;82.80
36450;DHT22;22475;51.390;7.180;2024-03-02T02:09:35;13.30;82.40
36450;DHT22;22475;51.390;7.180;2024-03-02T02:12:03;13.30;82.40
36450;DHT22;22475;51.390;7.180;2024-03-02T02:14:32;13.30;82.20
36450;DHT22;22475;51.390;7.180;2024-03-02T02:16:59;13.30;82.40
36450;DHT22;22475;51.390;7.180;2024-03-02T02:19:25;13.20;81.00
36450;DHT22;22475;51.390;7.180;2024-03-02T02:21:54;13.20;80.30
36450;DHT22;22475;51.390;7.180;2024-03-02T02:24:20;13.20;81.00
36450;DHT22;22475;51.390;7.180;2024-03-02T02:26:47;13.30;82.00
36450;DHT22;22475;51.390;7.180;2024-03-02T02:29:14;13.30;82.20
36450;DHT22;22475;51.390;7.180;2024-03-02T02:31:41;13.20;81.60
36450;DHT22;22475;51.390;7.180;2024-03-02T02:34:08;13.30;81.70
36450;DHT22;22475;51.390;7.180;2024-03-02T02:36:38;13.20;80.00
36450;DHT22;22475;51.390;7.180;2024-03-02T02:39:11;13.20;80.10
36450;DHT22;22475;51.390;7.180;2024-03-02T02:41:40;13.20;79.30
36450;DHT22;22475;51.390;7.180;2024-03-02T02:44:06;13.30;81.90
36450;DHT22;22475;51.390;7.180;2024-03-02T02:46:33;13.30;82.40
36450;DHT22;22475;51.390;7.180;2024-03-02T02:49:00;13.30;81.60
36450;DHT22;22475;51.390;7.180;2024-03-02T02:51:27;13.30;81.80
36450;DHT22;22475;51.390;7.180;2024-03-02T02:53:53;13.30;81.80
36450;DHT22;22475;51.390;7.180;2024-03-02T02:56:21;13.20;81.30
36450;DHT22;22475;51.390;7.180;2024-03-02T02:58:48;13.30;81.40
36450;DHT22;22475;51.390;7.180;2024-03-02T03:01:16;13.20;81.60
36450;DHT22;22475;51.390;7.180;2024-03-02T03:03:43;13.10;80.40
36450;DHT22;22475;51.390;7.180;2024-03-02T03:06:11;13.20;81.00
36450;DHT22;22475;51.390;7.180;2024-03-02T03:08:38;13.30;81.90
36450;DHT22;22475;51.390;7.180;2024-03-02T03:11:05;13.30;81.90
36450;DHT22;22475;51.390;7.180;2024-03-02T03:13:34;13.30;82.10
36450;DHT22;22475;51.390;7.180;2024-03-02T03:16:01;13.30;82.40
36450;DHT22;22475;51.390;7.180;2024-03-02T03:18:28;13.30;81.80
36450;DHT22;22475;51.390;7.180;2024-03-02T03:20:55;13.30;81.90
36450;DHT22;22475;51.390;7.180;2024-03-02T03:23:22;13.20;81.00
36450;DHT22;22475;51.390;7.180;2024-03-02T03:25:49;13.30;81.30
36450;DHT22;22475;51.390;7.180;2024-03-02T03:28:15;13.20;80.90
36450;DHT22;22475;51.390;7.180;2024-03-02T03:30:44;13.20;80.40
36450;DHT22;22475;51.390;7.180;2024-03-02T03:33:10;13.20;81.50
36450;DHT22;22475;51.390;7.180;2024-03-02T03:35:37;13.30;82.30
36450;DHT22;22475;51.390;7.180;2024-03-02T03:38:04;13.30;82.60
36450;DHT22;22475;51.390;7.180;2024-03-02T03:40:31;13.30;83.00
36450;DHT22;22475;51.390;7.180;2024-03-02T03:42:58;13.40;83.40
36450;DHT22;22475;51.390;7.180;2024-03-02T03:45:25;13.30;83.30
36450;DHT22;22475;51.390;7.180;2024-03-02T03:47:54;13.40;82.80
36450;DHT22;22475;51.390;7.180;2024-03-02T03:50:21;13.30;82.60
36450;DHT22;22475;51.390;7.180;2024-03-02T03:52:47;13.40;83.10
36450;DHT22;22475;51.390;7.180;2024-03-02T03:55:14;13.40;83.40
36450;DHT22;22475;51.390;7.180;2024-03-02T03:57:41;13.30;81.90
36450;DHT22;22475;51.390;7.180;2024-03-02T04:00:08;13.30;83.00
36450;DHT22;22475;51.390;7.180;2024-03-02T04:02:37;13.40;83.50
36450;DHT22;22475;51.390;7.180;2024-03-02T04:05:06;13.40;83.50
36450;DHT22;22475;51.390;7.180;2024-03-02T04:07:35;13.40;83.90
36450;DHT22;22475;51.390;7.180;2024-03-02T04:10:07;13.30;82.50
36450;DHT22;22475;51.390;7.180;2024-03-02T04:12:35;13.30;83.10
36450;DHT22;22475;51.390;7.180;2024-03-02T04:15:02;13.40;83.70
36450;DHT22;22475;51.390;7.180;2024-03-02T04:17:31;13.40;83.80
36450;DHT22;22475;51.390;7.180;2024-03-02T04:19:58;13.40;83.80
36450;DHT22;22475;51.390;7.180;2024-03-02T04:22:26;13.40;83.50
36450;DHT22;22475;51.390;7.180;2024-03-02T04:24:53;13.40;83.30
36450;DHT22;22475;51.390;7.180;2024-03-02T04:27:20;13.40;83.40
36450;DHT22;22475;51.390;7.180;2024-03-02T04:29:46;13.40;84.30
36450;DHT22;22475;51.390;7.180;2024-03-02T04:32:13;13.40;84.20
36450;DHT22;22475;51.390;7.180;2024-03-02T04:34:40;13.40;83.90
36450;DHT22;22475;51.390;7.180;2024-03-02T04:37:07;13.40;83.90
36450;DHT22;22475;51.390;7.180;2024-03-02T04:39:36;13.30;83.00
36450;DHT22;22475;51.390;7.180;2024-03-02T04:42:03;13.30;83.40
36450;DHT22;22475;51.390;7.180;2024-03-02T04:44:30;13.30;83.40
36450;DHT22;22475;51.390;7.180;2024-03-02T04:46:56;13.30;83.20
36450;DHT22;22475;51.390;7.180;2024-03-02T04:49:23;13.40;83.60
36450;DHT22;22475;51.390;7.180;2024-03-02T04:51:50;13.30;83.00
36450;DHT22;22475;51.390;7.180;2024-03-02T04:54:17;13.30;83.20
36450;DHT22;22475;51.390;7.180;2024-03-02T04:56:45;13.30;83.40
36450;DHT22;22475;51.390;7.180;2024-03-02T04:59:15;13.40;83.80
36450;DHT22;22475;51.390;7.180;2024-03-02T05:01:43;13.40;83.40
36450;DHT22;22475;51.390;7.180;2024-03-02T05:04:10;13.40;83.70
36450;DHT22;22475;51.390;7.180;2024-03-02T05:06:38;13.40;83.40
36450;DHT22;22475;51.390;7.180;2024-03-02T05:09:06;13.30;82.90
36450;DHT22;22475;51.390;7.180;2024-03-02T05:11:32;13.30;83.10
36450;DHT22;22475;51.390;7.180;2024-03-02T05:14:26;13.30;83.50
36450;DHT22;22475;51.390;7.180;2024-03-02T05:16:51;13.40;83.50
36450;DHT22;22475;51.390;7.180;2024-03-02T05:19:18;13.40;83.40
36450;DHT22;22475;51.390;7.180;2024-03-02T05:21:45;13.40;83.60
36450;DHT22;22475;51.390;7.180;2024-03-02T05:24:12;13.40;84.10
36450;DHT22;22475;51.390;7.180;2024-03-02T05:26:38;13.40;83.70
36450;DHT22;22475;51.390;7.180;2024-03-02T05:29:05;13.40;83.20
36450;DHT22;22475;51.390;7.180;2024-03-02T05:31:34;13.40;83.30
36450;DHT22;22475;51.390;7.180;2024-03-02T05:34:00;13.40;83.50
36450;DHT22;22475;51.390;7.180;2024-03-02T05:36:28;13.30;82.70
36450;DHT22;22475;51.390;7.180;2024-03-02T05:38:55;13.30;81.40
36450;DHT22;22475;51.390;7.180;2024-03-02T05:41:21;13.30;82.20
36450;DHT22;22475;51.390;7.180;2024-03-02T05:43:48;13.40;83.20
36450;DHT22;22475;51.390;7.180;2024-03-02T05:46:15;13.40;83.20
36450;DHT22;22475;51.390;7.180;2024-03-02T05:48:43;13.30;82.70
36450;DHT22;22475;51.390;7.180;2024-03-02T05:51:10;13.30;82.30
36450;DHT22;22475;51.390;7.180;2024-03-02T05:53:37;13.30;82.10
36450;DHT22;22475;51.390;7.180;2024-03-02T05:56:05;13.20;81.10
36450;DHT22;22475;51.390;7.180;2024-03-02T05:58:31;13.20;81.20
36450;DHT22;22475;51.390;7.180;2024-03-02T06:01:11;13.20;81.10
36450;DHT22;22475;51.390;7.180;2024-03-02T06:03:38;13.20;80.90
36450;DHT22;22475;51.390;7.180;2024-03-02T06:06:06;13.10;79.40
36450;DHT22;22475;51.390;7.180;2024-03-02T06:08:33;13.10;79.50
36450;DHT22;22475;51.390;7.180;2024-03-02T06:11:00;13.10;79.40
36450;DHT22;22475;51.390;7.180;2024-03-02T06:13:27;13.00;78.20
36450;DHT22;22475;51.390;7.180;2024-03-02T06:15:54;13.10;78.50
36450;DHT22;22475;51.390;7.180;2024-03-02T06:18:21;13.10;80.20
36450;DHT22;22475;51.390;7.180;2024-03-02T06:20:47;13.20;80.50
36450;DHT22;22475;51.390;7.180;2024-03-02T06:23:16;13.20;80.90
36450;DHT22;22475;51.390;7.180;2024-03-02T06:25:42;13.10;79.80
36450;DHT22;22475;51.390;7.180;2024-03-02T06:28:09;13.20;80.30
36450;DHT22;22475;51.390;7.180;2024-03-02T06:30:36;13.10;79.10
36450;DHT22;22475;51.390;7.180;2024-03-02T06:33:03;13.20;80.20
36450;DHT22;22475;51.390;7.180;2024-03-02T06:35:31;13.20;81.00
36450;DHT22;22475;51.390;7.180;2024-03-02T06:37:58;13.10;80.20
36450;DHT22;22475;51.390;7.180;2024-03-02T06:40:26;13.10;80.00
36450;DHT22;22475;51.390;7.180;2024-03-02T06:42:53;13.20;81.00
36450;DHT22;22475;51.390;7.180;2024-03-02T06:45:20;13.10;80.40
36450;DHT22;22475;51.390;7.180;2024-03-02T06:47:47;13.10;80.80
36450;DHT22;22475;51.390;7.180;2024-03-02T06:50:14;13.10;80.10
36450;DHT22;22475;51.390;7.180;2024-03-02T06:52:40;13.10;80.60
36450;DHT22;22475;51.390;7.180;2024-03-02T06:55:07;13.10;79.40
36450;DHT22;22475;51.390;7.180;2024-03-02T06:57:36;13.20;81.00
36450;DHT22;22475;51.390;7.180;2024-03-02T07:00:03;13.20;81.50
36450;DHT22;22475;51.390;7.180;2024-03-02T07:02:30;13.20;81.40
36450;DHT22;22475;51.390;7.180;2024-03-02T07:04:58;13.20;81.50
36450;DHT22;22475;51.390;7.180;2024-03-02T07:07:24;13.20;80.90
36450;DHT22;22475;51.390;7.180;2024-03-02T07:09:51;13.20;80.80
36450;DHT22;22475;51.390;7.180;2024-03-02T07:12:18;13.10;80.20
36450;DHT22;22475;51.390;7.180;2024-03-02T07:14:46;13.20;80.80
36450;DHT22;22475;51.390;7.180;2024-03-02T07:17:37;13.10;80.90
36450;DHT22;22475;51.390;7.180;2024-03-02T07:20:03;13.10;80.40
36450;DHT22;22475;51.390;7.180;2024-03-02T07:22:30;13.10;80.60
36450;DHT22;22475;51.390;7.180;2024-03-02T07:24:57;13.10;80.20
36450;DHT22;22475;51.390;7.180;2024-03-02T07:27:23;13.10;80.60
36450;DHT22;22475;51.390;7.180;2024-03-02T07:29:52;13.10;81.60
36450;DHT22;22475;51.390;7.180;2024-03-02T07:32:18;13.20;82.70
36450;DHT22;22475;51.390;7.180;2024-03-02T07:34:45;13.10;81.30
36450;DHT22;22475;51.390;7.180;2024-03-02T07:37:12;13.10;81.00
36450;DHT22;22475;51.390;7.180;2024-03-02T07:39:39;13.20;81.30
36450;DHT22;22475;51.390;7.180;2024-03-02T07:42:06;13.10;80.60
36450;DHT22;22475;51.390;7.180;2024-03-02T07:44:33;13.20;82.80
36450;DHT22;22475;51.390;7.180;2024-03-02T07:47:01;13.20;82.20
36450;DHT22;22475;51.390;7.180;2024-03-02T07:49:28;13.10;81.00
36450;DHT22;22475;51.390;7.180;2024-03-02T07:51:55;13.20;82.10
36450;DHT22;22475;51.390;7.180;2024-03-02T07:54:22;13.20;81.00
36450;DHT22;22475;51.390;7.180;2024-03-02T07:56:48;13.10;80.20
36450;DHT22;22475;51.390;7.180;2024-03-02T07:59:15;13.10;81.00
36450;DHT22;22475;51.390;7.180;2024-03-02T08:01:42;13.20;81.70
36450;DHT22;22475;51.390;7.180;2024-03-02T08:04:10;13.30;83.20
36450;DHT22;22475;51.390;7.180;2024-03-02T08:06:37;13.30;83.20
36450;DHT22;22475;51.390;7.180;2024-03-02T08:09:04;13.30;82.40
36450;DHT22;22475;51.390;7.180;2024-03-02T08:11:35;13.20;82.10
36450;DHT22;22475;51.390;7.180;2024-03-02T08:14:02;13.30;82.70
36450;DHT22;22475;51.390;7.180;2024-03-02T08:16:29;13.30;83.30
36450;DHT22;22475;51.390;7.180;2024-03-02T08:18:56;13.30;82.60
36450;DHT22;22475;51.390;7.180;2024-03-02T08:21:25;13.30;81.30
36450;DHT22;22475;51.390;7.180;2024-03-02T08:23:52;13.30;83.20
36450;DHT22;22475;51.390;7.180;2024-03-02T08:26:19;13.30;82.70
36450;DHT22;22475;51.390;7.180;2024-03-02T08:28:46;13.20;81.40
36450;DHT22;22475;51.390;7.180;2024-03-02T08:31:12;13.30;81.90
36450;DHT22;22475;51.390;7.180;2024-03-02T08:33:39;13.30;82.60
36450;DHT22;22475;51.390;7.180;2024-03-02T08:36:08;13.30;83.00
36450;DHT22;22475;51.390;7.180;2024-03-02T08:38:37;13.30;82.90
36450;DHT22;22475;51.390;7.180;2024-03-02T08:41:04;13.30;83.90
36450;DHT22;22475;51.390;7.180;2024-03-02T08:43:31;13.40;83.40
36450;DHT22;22475;51.390;7.180;2024-03-02T08:46:00;13.40;83.70
36450;DHT22;22475;51.390;7.180;2024-03-02T08:48:27;13.40;83.70
36450;DHT22;22475;51.390;7.180;2024-03-02T08:50:54;13.50;83.00
36450;DHT22;22475;51.390;7.180;2024-03-02T08:53:20;13.40;82.70
36450;DHT22;22475;51.390;7.180;2024-03-02T08:55:49;13.50;83.10
36450;DHT22;22475;51.390;7.180;2024-03-02T08:58:15;13.40;82.90
36450;DHT22;22475;51.390;7.180;2024-03-02T09:00:42;13.40;82.90
36450;DHT22;22475;51.390;7.180;2024-03-02T09:03:09;13.40;83.00
36450;DHT22;22475;51.390;7.180;2024-03-02T09:05:36;13.40;83.10
36450;DHT22;22475;51.390;7.180;2024-03-02T09:08:04;13.40;82.50
36450;DHT22;22475;51.390;7.180;2024-03-02T09:10:31;13.40;81.70
36450;DHT22;22475;51.390;7.180;2024-03-02T09:12:59;13.40;82.30
36450;DHT22;22475;51.390;7.180;2024-03-02T09:15:26;13.40;82.20
36450;DHT22;22475;51.390;7.180;2024-03-02T09:17:53;13.40;82.90
36450;DHT22;22475;51.390;7.180;2024-03-02T09:20:20;13.50;83.20
36450;DHT22;22475;51.390;7.180;2024-03-02T09:22:47;13.50;83.20
36450;DHT22;22475;51.390;7.180;2024-03-02T09:25:14;13.40;82.70
36450;DHT22;22475;51.390;7.180;2024-03-02T09:27:41;13.50;83.10
36450;DHT22;22475;51.390;7.180;2024-03-02T09:30:10;13.50;83.40
36450;DHT22;22475;51.390;7.180;2024-03-02T09:32:39;13.40;82.20
36450;DHT22;22475;51.390;7.180;2024-03-02T09:35:06;13.50;83.00
36450;DHT22;22475;51.390;7.180;2024-03-02T09:37:33;13.50;83.30
36450;DHT22;22475;51.390;7.180;2024-03-02T09:40:00;13.50;83.10
36450;DHT22;22475;51.390;7.180;2024-03-02T09:42:27;13.50;83.20
36450;DHT22;22475;51.390;7.180;2024-03-02T09:44:54;13.50;83.00
36450;DHT22;22475;51.390;7.180;2024-03-02T09:47:22;13.50;82.80
36450;DHT22;22475;51.390;7.180;2024-03-02T09:49:49;13.40;81.60
36450;DHT22;22475;51.390;7.180;2024-03-02T09:52:16;13.50;82.10
36450;DHT22;22475;51.390;7.180;2024-03-02T09:54:43;13.50;82.30
36450;DHT22;22475;51.390;7.180;2024-03-02T09:57:10;13.50;83.00
36450;DHT22;22475;51.390;7.180;2024-03-02T09:59:36;13.50;82.80
36450;DHT22;22475;51.390;7.180;2024-03-02T10:02:03;13.50;82.10
36450;DHT22;22475;51.390;7.180;2024-03-02T10:04:34;13.60;82.10
36450;DHT22;22475;51.390;7.180;2024-03-02T10:07:17;13.60;82.20
36450;DHT22;22475;51.390;7.180;2024-03-02T10:09:45;13.60;82.20
36450;DHT22;22475;51.390;7.180;2024-03-02T10:12:13;13.60;81.70
36450;DHT22;22475;51.390;7.180;2024-03-02T10:14:41;13.60;82.20
36450;DHT22;22475;51.390;7.180;2024-03-02T10:17:09;13.60;82.30
36450;DHT22;22475;51.390;7.180;2024-03-02T10:19:38;13.60;81.70
36450;DHT22;22475;51.390;7.180;2024-03-02T10:22:06;13.60;81.30
36450;DHT22;22475;51.390;7.180;2024-03-02T10:24:37;13.60;81.30
36450;DHT22;22475;51.390;7.180;2024-03-02T10:27:08;13.50;80.80
36450;DHT22;22475;51.390;7.180;2024-03-02T10:29:39;13.60;81.70
36450;DHT22;22475;51.390;7.180;2024-03-02T10:32:09;13.50;81.00
36450;DHT22;22475;51.390;7.180;2024-03-02T10:34:39;13.50;80.80
36450;DHT22;22475;51.390;7.180;2024-03-02T10:37:06;13.50;80.90
36450;DHT22;22475;51.390;7.180;2024-03-02T10:39:34;13.50;79.60
36450;DHT22;22475;51.390;7.180;2024-03-02T10:42:03;13.50;79.00
36450;DHT22;22475;51.390;7.180;2024-03-02T10:44:31;13.50;79.30
36450;DHT22;22475;51.390;7.180;2024-03-02T10:47:00;13.50;79.30
36450;DHT22;22475;51.390;7.180;2024-03-02T10:49:29;13.50;80.10
36450;DHT22;22475;51.390;7.180;2024-03-02T10:51:57;13.60;79.90
36450;DHT22;22475;51.390;7.180;2024-03-02T10:54:24;13.60;80.70
36450;DHT22;22475;51.390;7.180;2024-03-02T10:56:56;13.70;81.40
36450;DHT22;22475;51.390;7.180;2024-03-02T10:59:27;13.70;80.90
36450;DHT22;22475;51.390;7.180;2024-03-02T11:01:56;13.70;80.90
36450;DHT22;22475;51.390;7.180;2024-03-02T11:04:24;13.70;82.50
36450;DHT22;22475;51.390;7.180;2024-03-02T11:06:52;13.80;83.10
36450;DHT22;22475;51.390;7.180;2024-03-02T11:09:25;13.80;81.60
36450;DHT22;22475;51.390;7.180;2024-03-02T11:11:56;13.80;81.40
36450;DHT22;22475;51.390;7.180;2024-03-02T11:14:29;13.80;81.70
36450;DHT22;22475;51.390;7.180;2024-03-02T11:16:56;13.80;81.80
36450;DHT22;22475;51.390;7.180;2024-03-02T11:19:24;13.80;81.30
36450;DHT22;22475;51.390;7.180;2024-03-02T11:21:51;13.80;82.10
36450;DHT22;22475;51.390;7.180;2024-03-02T11:24:48;13.80;82.20
36450;DHT22;22475;51.390;7.180;2024-03-02T11:30:50;13.80;81.40
36450;DHT22;22475;51.390;7.180;2024-03-02T11:33:25;13.80;82.00
36450;DHT22;22475;51.390;7.180;2024-03-02T11:35:53;13.80;81.90
36450;DHT22;22475;51.390;7.180;2024-03-02T11:38:19;13.70;80.80
36450;DHT22;22475;51.390;7.180;2024-03-02T11:40:47;13.70;80.00
36450;DHT22;22475;51.390;7.180;2024-03-02T11:43:14;13.70;79.70
36450;DHT22;22475;51.390;7.180;2024-03-02T11:45:42;13.70;79.50
36450;DHT22;22475;51.390;7.180;2024-03-02T11:48:11;13.70;79.80
36450;DHT22;22475;51.390;7.180;2024-03-02T11:50:41;13.70;79.60
36450;DHT22;22475;51.390;7.180;2024-03-02T11:53:10;13.70;78.40
36450;DHT22;22475;51.390;7.180;2024-03-02T11:55:39;13.70;77.60
36450;DHT22;22475;51.390;7.180;2024-03-02T11:58:07;13.70;78.10
36450;DHT22;22475;51.390;7.180;2024-03-02T12:00:34;13.70;78.70
36450;DHT22;22475;51.390;7.180;2024-03-02T12:03:03;13.80;80.20
36450;DHT22;22475;51.390;7.180;2024-03-02T12:05:30;13.80;79.80
36450;DHT22;22475;51.390;7.180;2024-03-02T12:07:57;13.70;78.60
36450;DHT22;22475;51.390;7.180;2024-03-02T12:10:24;13.80;79.40
36450;DHT22;22475;51.390;7.180;2024-03-02T12:12:57;13.80;79.60
36450;DHT22;22475;51.390;7.180;2024-03-02T12:15:27;13.80;79.30
36450;DHT22;22475;51.390;7.180;2024-03-02T12:17:55;13.80;79.70
36450;DHT22;22475;51.390;7.180;2024-03-02T12:20:22;13.80;79.10
36450;DHT22;22475;51.390;7.180;2024-03-02T12:22:50;13.80;78.20
36450;DHT22;22475;51.390;7.180;2024-03-02T12:25:17;13.80;80.20
36450;DHT22;22475;51.390;7.180;2024-03-02T12:27:45;13.80;81.00
36450;DHT22;22475;51.390;7.180;2024-03-02T12:30:12;13.90;81.20
36450;DHT22;22475;51.390;7.180;2024-03-02T12:32:41;13.90;81.10
36450;DHT22;22475;51.390;7.180;2024-03-02T12:35:08;13.90;80.70
36450;DHT22;22475;51.390;7.180;2024-03-02T12:37:42;13.80;80.40
36450;DHT22;22475;51.390;7.180;2024-03-02T12:40:10;13.90;80.50
36450;DHT22;22475;51.390;7.180;2024-03-02T12:42:37;13.90;80.50
36450;DHT22;22475;51.390;7.180;2024-03-02T12:45:05;13.90;80.30
36450;DHT22;22475;51.390;7.180;2024-03-02T12:47:32;13.90;80.40
36450;DHT22;22475;51.390;7.180;2024-03-02T12:50:01;13.90;81.00
36450;DHT22;22475;51.390;7.180;2024-03-02T12:52:28;13.90;80.70
36450;DHT22;22475;51.390;7.180;2024-03-02T12:54:56;13.90;81.40
36450;DHT22;22475;51.390;7.180;2024-03-02T12:57:25;14.00;81.30
36450;DHT22;22475;51.390;7.180;2024-03-02T12:59:52;14.00;81.20
36450;DHT22;22475;51.390;7.180;2024-03-02T13:02:23;13.90;80.80
36450;DHT22;22475;51.390;7.180;2024-03-02T13:04:52;13.90;80.90
36450;DHT22;22475;51.390;7.180;2024-03-02T13:07:21;13.90;80.80
36450;DHT22;22475;51.390;7.180;2024-03-02T13:09:49;13.90;80.60
36450;DHT22;22475;51.390;7.180;2024-03-02T13:12:16;13.90;80.20
36450;DHT22;22475;51.390;7.180;2024-03-02T13:14:43;13.90;80.60
36450;DHT22;22475;51.390;7.180;2024-03-02T13:17:10;13.90;80.80
36450;DHT22;22475;51.390;7.180;2024-03-02T13:19:43;13.90;80.20
36450;DHT22;22475;51.390;7.180;2024-03-02T13:22:16;13.90;80.20
36450;DHT22;22475;51.390;7.180;2024-03-02T13:24:45;13.90;80.30
36450;DHT22;22475;51.390;7.180;2024-03-02T13:27:11;14.00;80.50
36450;DHT22;22475;51.390;7.180;2024-03-02T13:29:38;13.90;80.20
36450;DHT22;22475;51.390;7.180;2024-03-02T13:32:05;14.00;80.00
36450;DHT22;22475;51.390;7.180;2024-03-02T13:34:32;13.90;80.20
36450;DHT22;22475;51.390;7.180;2024-03-02T13:36:59;13.90;80.00
36450;DHT22;22475;51.390;7.180;2024-03-02T13:39:27;13.90;79.80
36450;DHT22;22475;51.390;7.180;2024-03-02T13:41:57;13.90;78.60
36450;DHT22;22475;51.390;7.180;2024-03-02T13:44:29;13.90;78.50
36450;DHT22;22475;51.390;7.180;2024-03-02T13:46:56;13.80;78.30
36450;DHT22;22475;51.390;7.180;2024-03-02T13:49:23;13.90;78.10
36450;DHT22;22475;51.390;7.180;2024-03-02T13:51:54;13.90;78.30
36450;DHT22;22475;51.390;7.180;2024-03-02T13:54:22;13.80;77.90
36450;DHT22;22475;51.390;7.180;2024-03-02T13:56:49;13.90;78.10
36450;DHT22;22475;51.390;7.180;2024-03-02T13:59:16;13.80;77.30
36450;DHT22;22475;51.390;7.180;2024-03-02T14:01:42;13.80;77.00
36450;DHT22;22475;51.390;7.180;2024-03-02T14:04:10;13.80;77.10
36450;DHT22;22475;51.390;7.180;2024-03-02T14:06:36;13.90;78.60
36450;DHT22;22475;51.390;7.180;2024-03-02T14:09:03;13.90;78.30
36450;DHT22;22475;51.390;7.180;2024-03-02T14:11:30;13.80;77.80
36450;DHT22;22475;51.390;7.180;2024-03-02T14:13:57;13.80;77.40
36450;DHT22;22475;51.390;7.180;2024-03-02T14:16:25;13.80;76.80
36450;DHT22;22475;51.390;7.180;2024-03-02T14:18:52;13.80;77.10
36450;DHT22;22475;51.390;7.180;2024-03-02T14:21:18;13.80;76.80
36450;DHT22;22475;51.390;7.180;2024-03-02T14:23:45;13.80;76.40
36450;DHT22;22475;51.390;7.180;2024-03-02T14:26:12;13.80;76.60
36450;DHT22;22475;51.390;7.180;2024-03-02T14:28:39;13.80;76.40
36450;DHT22;22475;51.390;7.180;2024-03-02T14:31:06;13.90;77.40
36450;DHT22;22475;51.390;7.180;2024-03-02T14:33:34;13.90;77.10
36450;DHT22;22475;51.390;7.180;2024-03-02T14:36:01;13.80;76.40
36450;DHT22;22475;51.390;7.180;2024-03-02T14:38:30;13.80;76.00
36450;DHT22;22475;51.390;7.180;2024-03-02T14:40:56;13.90;76.90
36450;DHT22;22475;51.390;7.180;2024-03-02T14:43:24;13.90;77.00
36450;DHT22;22475;51.390;7.180;2024-03-02T14:45:50;13.90;77.10
36450;DHT22;22475;51.390;7.180;2024-03-02T14:48:17;14.00;79.10
36450;DHT22;22475;51.390;7.180;2024-03-02T14:50:45;14.00;79.00
36450;DHT22;22475;51.390;7.180;2024-03-02T14:53:12;14.00;78.60
36450;DHT22;22475;51.390;7.180;2024-03-02T14:55:39;14.00;78.20
36450;DHT22;22475;51.390;7.180;2024-03-02T14:58:06;13.90;77.80
36450;DHT22;22475;51.390;7.180;2024-03-02T15:00:33;14.00;78.70
36450;DHT22;22475;51.390;7.180;2024-03-02T15:03:00;14.00;79.00
36450;DHT22;22475;51.390;7.180;2024-03-02T15:05:27;14.00;78.50
36450;DHT22;22475;51.390;7.180;2024-03-02T15:07:55;14.00;78.80
36450;DHT22;22475;51.390;7.180;2024-03-02T15:10:24;14.00;78.80
36450;DHT22;22475;51.390;7.180;2024-03-02T15:12:51;14.10;79.20
36450;DHT22;22475;51.390;7.180;2024-03-02T15:15:18;14.00;78.90
36450;DHT22;22475;51.390;7.180;2024-03-02T15:17:44;14.00;78.30
36450;DHT22;22475;51.390;7.180;2024-03-02T15:20:11;14.00;79.10
36450;DHT22;22475;51.390;7.180;2024-03-02T15:22:38;14.10;79.00
36450;DHT22;22475;51.390;7.180;2024-03-02T15:25:07;14.00;78.50
36450;DHT22;22475;51.390;7.180;2024-03-02T15:27:34;14.00;78.60
36450;DHT22;22475;51.390;7.180;2024-03-02T15:30:00;14.00;78.10
36450;DHT22;22475;51.390;7.180;2024-03-02T15:32:28;14.00;77.70
36450;DHT22;22475;51.390;7.180;2024-03-02T15:34:55;14.00;78.60
36450;DHT22;22475;51.390;7.180;2024-03-02T15:37:22;14.00;78.80